Fredericksburg, IA

3:26 AM CDT en Octubre 24, 2014 (GMT -0500)
Oelwein Municipal | Change Station
CLOSE
Current Station
Aeropuerto
Location: Oelwein,
Altura: 1076 ft
Estaciones meteorológicas cercanas
Aviso en curso: Dense Fog Advisory

Alt 1076 ft 42.68 °N, 91.97 °W | Updated 11 minutes ago

Niebla
Niebla
50 ° F
Sensación térmica 50 ° F
N
5
Viento Variable Viento desde SSE

Hoy
Alta -- | Baja -- ° F
--% Posibilidad de precipitaciones
Ayer
Alta -- | Baja -- ° F
Precip. -- pul
7:33 AM 6:12 PM
Luna nueva, 0% visible
Presión 30.04 pul
Visibilidad 0.2 Millas
Nubes Nublado 200 ft
Punto de rocío 50 ° F
Humedad 100%
Precipitaciones 0.00 pul
Espesor de la nieve No disponible.
UV 0 de una escala de 12
Polen .30 de una escala de 12
Calidad del aire No disponible.
Flu Activity Sporadic
METAR KOLZ 240815Z AUTO 16004KT M1/4SM FG OVC002 10/10 A3004 RMK AO2

More Conditions Fewer Conditions

Presión 30.04 pul
Visibilidad 0.2 Millas
Nubes Nublado 200 ft
Punto de rocío 50 ° F
Humedad 100%
Precipitaciones 0.00 pul
Espesor de la nieve No disponible.
UV 0 de una escala de 12
Polen .30 de una escala de 12
Calidad del aire No disponible.
Flu Activity Sporadic
METAR KOLZ 240815Z AUTO 16004KT M1/4SM FG OVC002 10/10 A3004 RMK AO2

More Conditions Fewer Conditions

10-Day Weather Forecast

Almanac

Astronomía

Oct. 24, 2014 Salida Puesta
Hora real 7:33 AM CDT 6:12 PM CDT
Crepúsculo civil 7:04 AM CDT 6:41 PM CDT
Crepúsculo náutico 6:31 AM CDT 7:14 PM CDT
Crepúsculo astronómico 5:58 AM CDT 7:46 PM CDT
Luna 8:13 AM CDT 6:51 PM CDT
Horas de luz 11h 36m
Horas de luz
10h 38m
Tomorrow will be 2m 43s shorter.
Luna nueva, 0% of the Moon is Illuminated
Hoy
Luna nueva
Oct 30
Cuarto creciente
Nov 6
Luna llena
Nov 14
Cuarto menguante
Nov 22
Nueva

Extremos de hoy

Máximos del estado Bajos del estado

Community

WunderPhotos

Upload Photos

1,764,511 ¡fotos cargadas!

WunderBlogs® & News

Nearby

Grosos de nieve

Estación Profundido Altura
No tenemos constancia de nieve nueva.

Actividad de terremotos

Ciudad Distance Mag. Tiempo y dato
No hay informes recientes de la actividad sísmica.
Magnitud mínima muestra es 2,5.

Temperaturas de aguas costeras

Lugar Temperatura
Sin partes meteorológicos de las estaciones

Estaciones meteorológicas cercanas